Time;durP1;ratioP1;P1;durP2;ratioP2;P2;SDS_P1;SDS_P2;PMS_P1;PMS_P2;Temp;Humidity;BMP_temperature;BMP_pressure;BME280_temperature;BME280_humidity;BME280_pressure;Samples;Min_cycle;Max_cycle;Signal;HPM_P1;HPM_P2
2021/10/30 00:02:09;;;;;;;1999.90;999.90;;;0.50;99.90;;;;;;5093454;28;20024;-73
2021/10/30 00:04:35;;;;;;;1999.90;999.90;;;0.50;99.90;;;;;;5093437;28;20030;-73
2021/10/30 00:07:01;;;;;;;1999.90;999.90;;;0.50;99.90;;;;;;5093710;28;20036;-74
2021/10/30 00:09:26;;;;;;;1999.90;999.90;;;0.50;99.90;;;;;;5093280;28;20557;-75
2021/10/30 00:11:52;;;;;;;1999.90;999.90;;;0.60;99.90;;;;;;5093689;28;20036;-74
2021/10/30 00:14:18;;;;;;;1999.90;999.90;;;0.50;99.90;;;;;;5093383;28;20036;-74
2021/10/30 00:16:44;;;;;;;1999.90;999.90;;;0.60;99.90;;;;;;5093431;28;20463;-73
2021/10/30 00:19:10;;;;;;;1999.90;999.90;;;0.50;99.90;;;;;;5093512;28;20464;-75
2021/10/30 00:21:36;;;;;;;1999.90;999.90;;;0.80;99.90;;;;;;5074941;28;20502;-73
2021/10/30 00:24:01;;;;;;;1999.90;999.90;;;0.70;99.90;;;;;;5093248;28;20048;-74
2021/10/30 00:26:27;;;;;;;1999.90;999.90;;;0.70;99.90;;;;;;5093248;28;20067;-73
2021/10/30 00:28:53;;;;;;;1999.90;999.90;;;0.60;99.90;;;;;;5075135;28;20027;-74
2021/10/30 00:31:18;;;;;;;1999.90;999.90;;;0.60;99.90;;;;;;5093130;28;20028;-77
2021/10/30 00:33:44;;;;;;;1999.90;999.90;;;0.60;99.90;;;;;;5093101;28;20077;-74
2021/10/30 00:36:10;;;;;;;1999.90;999.90;;;0.50;99.90;;;;;;5093125;28;20024;-73
2021/10/30 00:38:36;;;;;;;1999.90;999.90;;;0.50;99.90;;;;;;5092942;28;20016;-74
2021/10/30 00:41:06;;;;;;;1999.90;999.90;;;0.60;99.90;;;;;;5093154;28;20356;-73
2021/10/30 00:43:33;;;;;;;1999.90;999.90;;;0.60;99.90;;;;;;5093046;28;20056;-72
2021/10/30 00:45:59;;;;;;;1999.90;999.90;;;0.60;99.90;;;;;;5092927;28;20123;-73
2021/10/30 00:48:25;;;;;;;1999.90;999.90;;;0.60;99.90;;;;;;5052498;28;1143977;-73
2021/10/30 00:50:53;;;;;;;1999.90;999.90;;;0.60;99.90;;;;;;5093737;28;20035;-73
2021/10/30 00:53:19;;;;;;;1999.90;999.90;;;0.60;99.90;;;;;;5093851;28;20016;-73
2021/10/30 00:55:46;;;;;;;1999.90;999.90;;;0.70;99.90;;;;;;5075431;28;20505;-73
2021/10/30 00:58:14;;;;;;;1999.90;999.90;;;0.60;99.90;;;;;;5093747;28;20012;-74
2021/10/30 01:00:40;;;;;;;1999.90;999.90;;;0.60;99.90;;;;;;5093728;28;20031;-73
2021/10/30 01:03:06;;;;;;;1999.90;999.90;;;0.50;99.90;;;;;;5075418;28;20615;-73
2021/10/30 01:05:36;;;;;;;1999.90;999.90;;;0.50;99.90;;;;;;5075201;28;20107;-73
2021/10/30 01:08:02;;;;;;;1999.90;999.90;;;0.40;99.90;;;;;;5075335;28;20127;-74
2021/10/30 01:10:27;;;;;;;1999.90;999.90;;;0.40;99.90;;;;;;5093345;28;20095;-74
2021/10/30 01:12:53;;;;;;;1999.90;999.90;;;0.40;99.90;;;;;;5093500;28;20036;-74
2021/10/30 01:15:19;;;;;;;1999.90;999.90;;;0.50;99.90;;;;;;5093388;28;20028;-74
2021/10/30 01:17:44;;;;;;;1999.90;999.90;;;0.40;99.90;;;;;;5093431;28;20056;-74
2021/10/30 01:20:21;;;;;;;1999.90;999.90;;;0.50;99.90;;;;;;5093341;28;20035;-74
2021/10/30 01:22:47;;;;;;;1999.90;999.90;;;0.40;99.90;;;;;;5093193;28;20081;-74
2021/10/30 01:25:12;;;;;;;1999.90;999.90;;;0.40;99.90;;;;;;5093119;28;20036;-74
2021/10/30 01:27:41;;;;;;;1999.90;999.90;;;0.50;99.90;;;;;;5093173;28;20068;-76
2021/10/30 01:30:07;;;;;;;1999.90;999.90;;;0.40;99.90;;;;;;5093113;28;20062;-75
2021/10/30 01:32:33;;;;;;;1999.90;999.90;;;0.40;99.90;;;;;;5092450;28;20039;-73
2021/10/30 01:34:59;;;;;;;1999.90;999.90;;;0.40;99.90;;;;;;5074639;28;20024;-73
2021/10/30 01:37:25;;;;;;;1999.90;999.90;;;0.50;99.90;;;;;;5092973;28;20024;-77
2021/10/30 01:39:51;;;;;;;1999.90;999.90;;;0.30;99.90;;;;;;5093065;28;20348;-75
2021/10/30 01:42:17;;;;;;;1999.90;999.90;;;0.40;99.90;;;;;;5092848;28;20468;-74
2021/10/30 01:44:42;;;;;;;1999.90;999.90;;;0.40;99.90;;;;;;5092799;28;20084;-75
2021/10/30 01:47:08;;;;;;;1999.90;999.90;;;0.40;99.90;;;;;;5092725;28;20040;-74
2021/10/30 01:49:34;;;;;;;1999.90;999.90;;;0.30;99.90;;;;;;5092595;28;20173;-74
2021/10/30 01:51:59;;;;;;;1999.90;999.90;;;0.30;99.90;;;;;;5092700;28;20468;-74
2021/10/30 01:54:26;;;;;;;1999.90;999.90;;;0.20;99.90;;;;;;5092588;28;20394;-74
2021/10/30 01:56:51;;;;;;;1999.90;999.90;;;0.20;99.90;;;;;;5092679;28;20028;-74
2021/10/30 01:59:17;;;;;;;1999.90;999.90;;;0.30;99.90;;;;;;5092530;28;20487;-73
2021/10/30 02:01:43;;;;;;;1999.90;999.90;;;0.40;99.90;;;;;;5074267;28;20031;-73
2021/10/30 02:04:09;;;;;;;1999.90;999.90;;;0.40;99.90;;;;;;5092558;28;20379;-73
2021/10/30 02:06:34;;;;;;;1999.90;999.90;;;0.30;99.90;;;;;;5092470;28;20086;-73
2021/10/30 02:09:00;;;;;;;1999.90;999.90;;;0.40;99.90;;;;;;5092437;28;20026;-74
2021/10/30 02:11:26;;;;;;;1999.90;999.90;;;0.30;99.90;;;;;;5092458;28;20016;-75
2021/10/30 02:13:51;;;;;;;1999.90;999.90;;;0.30;99.90;;;;;;5092444;28;20055;-73
2021/10/30 02:16:17;;;;;;;1999.90;999.90;;;0.40;99.90;;;;;;5092418;28;20032;-76
2021/10/30 02:18:43;;;;;;;1999.90;999.90;;;0.40;99.90;;;;;;5092386;28;20028;-74
2021/10/30 02:21:08;;;;;;;1999.90;999.90;;;0.40;99.90;;;;;;5092297;28;20024;-74
2021/10/30 02:23:34;;;;;;;1999.90;999.90;;;0.40;99.90;;;;;;5092140;28;20015;-74
2021/10/30 02:26:00;;;;;;;1999.90;999.90;;;0.40;99.90;;;;;;5092201;28;20056;-74
2021/10/30 02:28:26;;;;;;;1999.90;999.90;;;0.50;99.90;;;;;;5092238;28;20067;-74
2021/10/30 02:30:52;;;;;;;1999.90;999.90;;;0.50;99.90;;;;;;5092196;28;20044;-75
2021/10/30 02:33:17;;;;;;;1999.90;999.90;;;0.50;99.90;;;;;;5092404;28;20419;-75
2021/10/30 02:35:43;;;;;;;1999.90;999.90;;;0.40;99.90;;;;;;5092009;28;20057;-74
2021/10/30 02:38:09;;;;;;;1999.90;999.90;;;0.50;99.90;;;;;;5092112;28;20024;-74
2021/10/30 02:40:34;;;;;;;1999.90;999.90;;;0.50;99.90;;;;;;5092176;28;20032;-74
2021/10/30 02:43:00;;;;;;;1999.90;999.90;;;0.40;99.90;;;;;;5092097;28;20106;-73
2021/10/30 02:45:26;;;;;;;1999.90;999.90;;;0.50;99.90;;;;;;5094142;28;20024;-74
2021/10/30 02:47:52;;;;;;;1999.90;999.90;;;0.50;99.90;;;;;;5096090;28;20036;-74
2021/10/30 02:50:19;;;;;;;1999.90;999.90;;;0.50;99.90;;;;;;5077771;28;20040;-74
2021/10/30 02:52:44;;;;;;;1999.90;999.90;;;0.20;99.90;;;;;;5096215;28;20075;-74
2021/10/30 02:55:10;;;;;;;1999.90;999.90;;;0.30;99.90;;;;;;5077652;28;20505;-74
2021/10/30 02:57:36;;;;;;;1999.90;999.90;;;0.30;99.90;;;;;;5077755;28;20055;-73
2021/10/30 03:00:05;;;;;;;1999.90;999.90;;;0.20;99.90;;;;;;5096110;28;20051;-73
2021/10/30 03:02:31;;;;;;;1999.90;999.90;;;0.30;99.90;;;;;;5077677;28;20039;-73
2021/10/30 03:04:56;;;;;;;1999.90;999.90;;;0.40;99.90;;;;;;5095966;28;20032;-74
2021/10/30 03:07:22;;;;;;;1999.90;999.90;;;0.30;99.90;;;;;;5095666;28;20365;-73
2021/10/30 03:09:50;;;;;;;1999.90;999.90;;;0.20;99.90;;;;;;5095435;28;20020;-74
2021/10/30 03:12:17;;;;;;;1999.90;999.90;;;0.20;99.90;;;;;;5095127;28;20023;-75
2021/10/30 03:14:43;;;;;;;1999.90;999.90;;;0.20;99.90;;;;;;5095292;28;20120;-74
2021/10/30 03:17:08;;;;;;;1999.90;999.90;;;0.30;99.90;;;;;;5095809;28;20107;-73
2021/10/30 03:19:34;;;;;;;1999.90;999.90;;;0.30;99.90;;;;;;5095534;28;20073;-73
2021/10/30 03:21:59;;;;;;;1999.90;999.90;;;0.30;99.90;;;;;;5095676;28;20410;-73
2021/10/30 03:24:25;;;;;;;1999.90;999.90;;;0.30;99.90;;;;;;5095811;28;20030;-73
2021/10/30 03:26:51;;;;;;;1999.90;999.90;;;0.20;99.90;;;;;;5095369;28;20048;-73
2021/10/30 03:29:16;;;;;;;1999.90;999.90;;;0.20;99.90;;;;;;5095423;28;20052;-74
2021/10/30 03:31:42;;;;;;;1999.90;999.90;;;0.20;99.90;;;;;;5095396;28;20039;-76
2021/10/30 03:34:08;;;;;;;1999.90;999.90;;;0.10;99.90;;;;;;5095274;28;20024;-75
2021/10/30 03:36:34;;;;;;;1999.90;999.90;;;0.10;99.90;;;;;;5077645;28;20119;-74
2021/10/30 03:39:00;;;;;;;1999.90;999.90;;;1.20;99.90;;;;;;5095132;28;20095;-73
2021/10/30 03:41:26;;;;;;;1999.90;999.90;;;1.10;99.90;;;;;;5095337;28;20108;-73
2021/10/30 03:43:52;;;;;;;1999.90;999.90;;;0.70;99.90;;;;;;5095032;28;20031;-73
2021/10/30 03:46:17;;;;;;;1999.90;999.90;;;0.50;99.90;;;;;;5095166;28;20023;-73
2021/10/30 03:48:43;;;;;;;1999.90;999.90;;;0.40;99.90;;;;;;5076070;28;20549;-73
2021/10/30 03:51:09;;;;;;;1999.90;999.90;;;0.40;99.90;;;;;;5097118;28;20101;-73
2021/10/30 03:53:34;;;;;;;1999.90;999.90;;;0.10;99.90;;;;;;5095482;28;20456;-73
2021/10/30 03:56:00;;;;;;;1999.90;999.90;;;0.00;99.90;;;;;;5095003;28;20495;-73
2021/10/30 03:58:26;;;;;;;1999.90;999.90;;;-0.10;99.90;;;;;;5096807;28;20031;-73
2021/10/30 04:00:52;;;;;;;1999.90;999.90;;;0.00;99.90;;;;;;5076828;28;20024;-74
2021/10/30 04:03:18;;;;;;;1999.90;999.90;;;0.00;99.90;;;;;;5094781;28;20025;-73
2021/10/30 04:05:43;;;;;;;1999.90;999.90;;;0.10;99.90;;;;;;5094740;28;20347;-74
2021/10/30 04:08:13;;;;;;;1999.90;999.90;;;0.10;99.90;;;;;;5094638;28;20127;-73
2021/10/30 04:10:39;;;;;;;1999.90;999.90;;;0.00;99.90;;;;;;5094545;28;20337;-73
2021/10/30 04:13:04;;;;;;;1999.90;999.90;;;-0.10;99.90;;;;;;5094750;28;20035;-74
2021/10/30 04:15:30;;;;;;;1999.90;999.90;;;-0.10;99.90;;;;;;5094299;28;20035;-73
2021/10/30 04:17:56;;;;;;;1999.90;999.90;;;0.00;99.90;;;;;;5094322;28;20031;-74
2021/10/30 04:20:21;;;;;;;1999.90;999.90;;;-0.10;99.90;;;;;;5076104;28;20024;-74
2021/10/30 04:22:47;;;;;;;1999.90;999.90;;;0.00;99.90;;;;;;5094408;28;20117;-73
2021/10/30 04:25:13;;;;;;;1999.90;999.90;;;0.00;99.90;;;;;;5076115;28;20070;-73
2021/10/30 04:27:39;;;;;;;1999.90;999.90;;;0.00;99.90;;;;;;5076134;28;20047;-73
2021/10/30 04:30:06;;;;;;;1999.90;999.90;;;0.00;99.90;;;;;;5094529;28;20077;-74
2021/10/30 04:32:32;;;;;;;1999.90;999.90;;;0.00;99.90;;;;;;5094253;28;20024;-73
2021/10/30 04:35:07;;;;;;;1999.90;999.90;;;-0.10;99.90;;;;;;5093707;28;20530;-73
2021/10/30 04:37:33;;;;;;;1999.90;999.90;;;-0.10;99.90;;;;;;5093397;28;20032;-73
2021/10/30 04:39:59;;;;;;;1999.90;999.90;;;-0.10;99.90;;;;;;5094018;28;20047;-73
2021/10/30 04:42:25;;;;;;;1999.90;999.90;;;-0.10;99.90;;;;;;5075784;28;20471;-73
2021/10/30 04:44:51;;;;;;;1999.90;999.90;;;-0.10;99.90;;;;;;5093796;28;20084;-73
2021/10/30 04:47:17;;;;;;;1999.90;999.90;;;-0.10;99.90;;;;;;5093608;28;20475;-74
2021/10/30 04:49:45;;;;;;;1999.90;999.90;;;0.00;99.90;;;;;;5093124;28;20056;-74
2021/10/30 04:52:11;;;;;;;1999.90;999.90;;;-0.10;99.90;;;;;;5075167;28;20138;-73
2021/10/30 04:54:37;;;;;;;1999.90;999.90;;;-0.10;99.90;;;;;;5093491;28;20035;-74
2021/10/30 04:57:04;;;;;;;1999.90;999.90;;;-0.10;99.90;;;;;;5093666;28;20016;-73
2021/10/30 04:59:29;;;;;;;1999.90;999.90;;;0.00;99.90;;;;;;5093658;28;20028;-73
2021/10/30 05:01:55;;;;;;;1999.90;999.90;;;0.00;99.90;;;;;;5093655;28;20085;-74
2021/10/30 05:04:21;;;;;;;1999.90;999.90;;;0.00;99.90;;;;;;5093844;28;20033;-74
2021/10/30 05:06:47;;;;;;;1999.90;999.90;;;-0.10;99.90;;;;;;5074980;28;20538;-73
2021/10/30 05:09:13;;;;;;;1999.90;999.90;;;-0.10;99.90;;;;;;5092516;28;20426;-73
2021/10/30 05:11:38;;;;;;;1999.90;999.90;;;0.00;99.90;;;;;;5074873;28;20063;-73
2021/10/30 05:14:04;;;;;;;1999.90;999.90;;;0.00;99.90;;;;;;5093437;28;20020;-73
2021/10/30 05:16:30;;;;;;;1999.90;999.90;;;0.00;99.90;;;;;;5093202;28;20016;-74
2021/10/30 05:18:55;;;;;;;1999.90;999.90;;;0.10;99.90;;;;;;5075079;28;20024;-73
2021/10/30 05:21:21;;;;;;;1999.90;999.90;;;-0.10;99.90;;;;;;5093392;28;20024;-74
2021/10/30 05:23:47;;;;;;;1999.90;999.90;;;-0.10;99.90;;;;;;5093163;28;20417;-73
2021/10/30 05:26:12;;;;;;;1999.90;999.90;;;-0.10;99.90;;;;;;5093355;28;20368;-73
2021/10/30 05:28:38;;;;;;;1999.90;999.90;;;-0.10;99.90;;;;;;5093065;28;20085;-75
2021/10/30 05:31:04;;;;;;;1999.90;999.90;;;-0.30;99.90;;;;;;5093133;28;20387;-76
2021/10/30 05:33:30;;;;;;;1999.90;999.90;;;-0.30;99.90;;;;;;5093125;28;20012;-74
2021/10/30 05:35:56;;;;;;;1999.90;999.90;;;-0.30;99.90;;;;;;5092955;28;20020;-74
2021/10/30 05:38:22;;;;;;;1999.90;999.90;;;-0.30;99.90;;;;;;5092592;28;20028;-74
2021/10/30 05:40:48;;;;;;;1999.90;999.90;;;-0.20;99.90;;;;;;5092837;28;20024;-74
2021/10/30 05:43:14;;;;;;;1999.90;999.90;;;-0.20;99.90;;;;;;5092909;28;20444;-73
2021/10/30 05:45:43;;;;;;;1999.90;999.90;;;-0.20;99.90;;;;;;5092735;28;20114;-74
2021/10/30 05:48:11;;;;;;;1999.90;999.90;;;-0.30;99.90;;;;;;5092448;28;20123;-74
2021/10/30 05:50:37;;;;;;;1999.90;999.90;;;-0.30;99.90;;;;;;5073863;28;20368;-76
2021/10/30 05:53:03;;;;;;;1999.90;999.90;;;-0.20;99.90;;;;;;5092246;28;20027;-73
2021/10/30 05:55:29;;;;;;;1999.90;999.90;;;-0.20;99.90;;;;;;5074444;28;20020;-74
2021/10/30 05:57:55;;;;;;;1999.90;999.90;;;-0.30;99.90;;;;;;5091873;28;20087;-74
2021/10/30 06:00:21;;;;;;;1999.90;999.90;;;-0.20;99.90;;;;;;5092190;28;20117;-74
2021/10/30 06:02:46;;;;;;;1999.90;999.90;;;-0.30;99.90;;;;;;5092669;28;20026;-72
2021/10/30 06:05:12;;;;;;;1999.90;999.90;;;-0.30;99.90;;;;;;5092448;28;20100;-73
2021/10/30 06:07:39;;;;;;;1999.90;999.90;;;-0.30;99.90;;;;;;5092499;28;20039;-74
2021/10/30 06:10:06;;;;;;;1999.90;999.90;;;-0.40;99.90;;;;;;5092572;28;20012;-74
2021/10/30 06:12:33;;;;;;;1999.90;999.90;;;-0.30;99.90;;;;;;5092238;28;20028;-74
2021/10/30 06:14:59;;;;;;;1999.90;999.90;;;-0.30;99.90;;;;;;5092285;28;20070;-73
2021/10/30 06:17:25;;;;;;;1999.90;999.90;;;-0.30;99.90;;;;;;5074296;28;20048;-74
2021/10/30 06:19:50;;;;;;;1999.90;999.90;;;-0.30;99.90;;;;;;5092277;28;20028;-73
2021/10/30 06:22:16;;;;;;;1999.90;999.90;;;-0.30;99.90;;;;;;5092358;28;20501;-73
2021/10/30 06:24:42;;;;;;;1999.90;999.90;;;-0.20;99.90;;;;;;5092393;28;20027;-73
2021/10/30 06:27:08;;;;;;;1999.90;999.90;;;-0.10;99.90;;;;;;5091993;28;20493;-76
2021/10/30 06:29:34;;;;;;;1999.90;999.90;;;0.00;99.90;;;;;;5073736;28;20360;-74
2021/10/30 06:32:00;;;;;;;1999.90;999.90;;;0.00;99.90;;;;;;5073530;28;20035;-74
2021/10/30 06:34:26;;;;;;;1999.90;999.90;;;0.10;99.90;;;;;;5092156;28;20028;-73
2021/10/30 06:36:52;;;;;;;1999.90;999.90;;;0.20;99.90;;;;;;5074151;28;20031;-74
2021/10/30 06:39:18;;;;;;;1999.90;999.90;;;0.30;99.90;;;;;;5092159;28;20021;-74
2021/10/30 06:41:44;;;;;;;1999.90;999.90;;;0.20;99.90;;;;;;5092194;28;20053;-73
2021/10/30 06:44:09;;;;;;;1999.90;999.90;;;0.30;99.90;;;;;;5092050;28;20055;-75
2021/10/30 06:46:35;;;;;;;1999.90;999.90;;;0.40;99.90;;;;;;5091991;28;20032;-73
2021/10/30 06:49:01;;;;;;;1999.90;999.90;;;0.30;99.90;;;;;;5092102;28;20096;-74
2021/10/30 06:51:26;;;;;;;1999.90;999.90;;;0.50;99.90;;;;;;5091901;28;20017;-74
2021/10/30 06:53:52;;;;;;;1999.90;999.90;;;0.50;99.90;;;;;;5091584;28;20030;-74
2021/10/30 06:56:18;;;;;;;1999.90;999.90;;;0.70;99.90;;;;;;5091963;28;20083;-73
2021/10/30 06:58:45;;;;;;;1999.90;999.90;;;0.70;99.90;;;;;;5091917;28;20028;-75
2021/10/30 07:01:13;;;;;;;1999.90;999.90;;;0.70;99.90;;;;;;5091726;28;20028;-73
2021/10/30 07:03:42;;;;;;;1999.90;999.90;;;0.70;99.90;;;;;;5073808;28;20032;-74
2021/10/30 07:06:09;;;;;;;1999.90;999.90;;;0.80;99.90;;;;;;5073084;28;20110;-73
2021/10/30 07:08:35;;;;;;;1999.90;999.90;;;0.70;99.90;;;;;;5091814;28;20480;-74
2021/10/30 07:11:01;;;;;;;1999.90;999.90;;;0.60;99.90;;;;;;5091842;28;20104;-73
2021/10/30 07:13:26;;;;;;;1999.90;999.90;;;0.60;99.90;;;;;;5091953;28;20038;-73
2021/10/30 07:15:52;;;;;;;1999.90;999.90;;;0.70;99.90;;;;;;5091785;28;20055;-73
2021/10/30 07:18:18;;;;;;;1999.90;999.90;;;0.90;99.90;;;;;;5091848;28;20467;-72
2021/10/30 07:20:43;;;;;;;1999.90;999.90;;;0.70;99.90;;;;;;5091785;28;20372;-73
2021/10/30 07:23:09;;;;;;;1999.90;999.90;;;0.70;99.90;;;;;;5091724;28;20036;-75
2021/10/30 07:25:35;;;;;;;1999.90;999.90;;;0.80;99.90;;;;;;5091465;28;20028;-75
2021/10/30 07:28:00;;;;;;;1999.90;999.90;;;0.70;99.90;;;;;;5091525;28;20053;-74
2021/10/30 07:30:26;;;;;;;1999.90;999.90;;;0.70;99.90;;;;;;5091682;28;20123;-73
2021/10/30 07:32:53;;;;;;;1999.90;999.90;;;0.70;99.90;;;;;;5095181;28;20031;-74
2021/10/30 07:35:23;;;;;;;1999.90;999.90;;;0.70;99.90;;;;;;5095097;28;20024;-73
2021/10/30 07:37:50;;;;;;;1999.90;999.90;;;0.80;99.90;;;;;;5095380;28;20047;-81
2021/10/30 07:40:15;;;;;;;1999.90;999.90;;;1.00;99.90;;;;;;5077077;28;20039;-78
2021/10/30 07:42:44;;;;;;;1999.90;999.90;;;1.00;99.90;;;;;;5094944;28;20031;-78
2021/10/30 07:45:10;;;;;;;1999.90;999.90;;;1.10;99.90;;;;;;5094968;28;20020;-76
2021/10/30 07:47:37;;;;;;;1999.90;999.90;;;1.00;99.90;;;;;;5094820;28;20099;-79
2021/10/30 07:50:03;;;;;;;1999.90;999.90;;;1.10;99.90;;;;;;5094918;28;20040;-79
2021/10/30 07:52:29;;;;;;;1999.90;999.90;;;1.30;99.90;;;;;;5094902;28;20481;-79
2021/10/30 07:54:55;;;;;;;1999.90;999.90;;;1.30;99.90;;;;;;5077334;28;20016;-80
2021/10/30 07:57:21;;;;;;;1999.90;999.90;;;1.40;99.90;;;;;;5077186;28;20093;-79
2021/10/30 07:59:50;;;;;;;1999.90;999.90;;;1.60;99.90;;;;;;5077239;28;20028;-80
2021/10/30 08:02:18;;;;;;;1999.90;999.90;;;1.70;99.90;;;;;;5076059;28;20031;-79
2021/10/30 08:04:44;;;;;;;1999.90;999.90;;;1.80;99.90;;;;;;5076500;28;20077;-78
2021/10/30 08:07:09;;;;;;;1999.90;999.90;;;2.40;99.90;;;;;;5076615;28;20059;-75
2021/10/30 08:09:35;;;;;;;1999.90;999.90;;;2.10;99.90;;;;;;5094749;28;20485;-76
2021/10/30 08:12:01;;;;;;;1999.90;999.90;;;2.10;99.90;;;;;;5076507;28;20035;-78
2021/10/30 08:14:27;;;;;;;1999.90;999.90;;;2.40;99.90;;;;;;5076048;28;20023;-78
2021/10/30 08:16:53;;;;;;;1999.90;999.90;;;2.30;99.90;;;;;;5094407;28;20032;-81
2021/10/30 08:19:19;;;;;;;1999.90;999.90;;;2.20;99.90;;;;;;5094270;28;20092;-79
2021/10/30 08:21:44;;;;;;;1999.90;999.90;;;2.30;99.90;;;;;;5098744;28;20035;-76
2021/10/30 08:24:11;;;;;;;1999.90;999.90;;;2.50;99.90;;;;;;5108987;28;20028;-82
2021/10/30 08:26:37;;;;;;;1999.90;999.90;;;2.40;99.90;;;;;;5085021;28;20411;-75
2021/10/30 08:29:03;;;;;;;1999.90;999.90;;;2.30;99.90;;;;;;5101557;28;20035;-78
2021/10/30 08:31:30;;;;;;;1999.90;999.90;;;2.50;99.90;;;;;;5094168;28;20074;-75
2021/10/30 08:33:57;;;;;;;1999.90;999.90;;;2.40;99.90;;;;;;5075652;28;20073;-77
2021/10/30 08:36:26;;;;;;;1999.90;999.90;;;2.50;99.90;;;;;;5093418;28;20383;-76
2021/10/30 08:38:53;;;;;;;1999.90;999.90;;;2.70;99.90;;;;;;5094212;28;20017;-77
2021/10/30 08:41:18;;;;;;;1999.90;999.90;;;2.70;99.90;;;;;;5093491;28;20024;-76
2021/10/30 08:43:44;;;;;;;1999.90;999.90;;;2.80;99.90;;;;;;5074716;28;20031;-76
2021/10/30 08:46:10;;;;;;;1999.90;999.90;;;2.90;99.90;;;;;;5075780;28;20028;-75
2021/10/30 08:48:37;;;;;;;1999.90;999.90;;;2.90;99.90;;;;;;5093484;28;20043;-75
2021/10/30 08:51:04;;;;;;;1999.90;999.90;;;3.00;99.90;;;;;;5076390;28;20221;-75
2021/10/30 08:53:30;;;;;;;1999.90;999.90;;;3.80;99.90;;;;;;5093526;28;20028;-74
2021/10/30 08:55:58;;;;;;;1999.90;999.90;;;5.50;99.90;;;;;;5093454;28;20020;-74
2021/10/30 08:58:27;;;;;;;1999.90;999.90;;;6.40;99.90;;;;;;5093896;28;20395;-75
2021/10/30 09:00:57;;;;;;;1999.90;999.90;;;6.90;99.90;;;;;;5093645;28;20024;-76
2021/10/30 09:03:24;;;;;;;1999.90;999.90;;;7.00;99.90;;;;;;5092704;28;20378;-84
2021/10/30 09:05:56;;;;;;;1999.90;999.90;;;7.00;99.90;;;;;;5096444;28;20063;-81
2021/10/30 09:08:26;;;;;;;1999.90;999.90;;;7.00;99.90;;;;;;5095422;28;20479;-80
2021/10/30 09:10:58;;;;;;;1999.90;999.90;;;7.20;99.90;;;;;;5114152;28;20020;-79
2021/10/30 09:13:28;;;;;;;1999.90;999.90;;;6.60;99.90;;;;;;5117581;28;20030;-83
2021/10/30 09:15:54;;;;;;;1999.90;999.90;;;6.00;99.90;;;;;;5095649;28;20069;-81
2021/10/30 09:18:34;;;;;;;1999.90;999.90;;;5.50;99.90;;;;;;5095666;28;20058;-78
2021/10/30 09:21:12;;;;;;;1999.90;999.90;;;5.20;99.90;;;;;;5095367;28;20051;-79
2021/10/30 09:23:44;;;;;;;1999.90;999.90;;;4.80;99.90;;;;;;5095771;28;20416;-79
2021/10/30 09:26:20;;;;;;;1999.90;999.90;;;4.60;99.90;;;;;;5095493;28;20023;-79
2021/10/30 09:28:52;;;;;;;1999.90;999.90;;;4.60;99.90;;;;;;5095443;28;20039;-76
2021/10/30 09:31:19;;;;;;;1999.90;999.90;;;4.60;99.90;;;;;;5095315;28;20020;-78
2021/10/30 09:34:00;;;;;;;1999.90;999.90;;;4.50;99.90;;;;;;5094522;28;20116;-80
2021/10/30 09:36:34;;;;;;;1999.90;999.90;;;4.40;99.90;;;;;;5095615;28;20039;-78
2021/10/30 09:39:06;;;;;;;1999.90;999.90;;;4.50;99.90;;;;;;5113413;28;20023;-80
2021/10/30 09:41:33;;;;;;;1999.90;999.90;;;4.60;99.90;;;;;;5095067;28;20023;-78
2021/10/30 09:44:09;;;;;;;1999.90;999.90;;;4.60;99.90;;;;;;5113519;28;20023;-80
2021/10/30 09:46:38;;;;;;;1999.90;999.90;;;4.70;99.90;;;;;;5095132;28;20058;-80
2021/10/30 09:49:18;;;;;;;1999.90;999.90;;;4.80;99.90;;;;;;5094915;28;20044;-78
2021/10/30 09:51:49;;;;;;;1999.90;999.90;;;4.80;99.90;;;;;;5094842;28;20020;-80
2021/10/30 09:54:31;;;;;;;1999.90;999.90;;;4.80;99.90;;;;;;5094143;28;20027;-79
2021/10/30 09:56:57;;;;;;;1999.90;999.90;;;4.80;99.90;;;;;;5094594;28;20093;-80
2021/10/30 09:59:25;;;;;;;1999.90;999.90;;;4.80;99.90;;;;;;5094549;28;20024;-79
2021/10/30 10:01:51;;;;;;;1999.90;999.90;;;4.80;99.90;;;;;;5112990;28;20106;-79
2021/10/30 10:04:19;;;;;;;1999.90;999.90;;;4.70;99.90;;;;;;5112937;28;20023;-81
2021/10/30 10:06:51;;;;;;;1999.90;999.90;;;4.60;99.90;;;;;;5094588;28;20130;-79
2021/10/30 10:09:18;;;;;;;1999.90;999.90;;;4.80;99.90;;;;;;5113027;28;20031;-80
2021/10/30 10:11:48;;;;;;;1999.90;999.90;;;4.90;99.90;;;;;;5112991;28;20122;-78
2021/10/30 10:14:21;;;;;;;1999.90;999.90;;;4.80;99.90;;;;;;5112921;28;20031;-80
2021/10/30 10:16:51;;;;;;;1999.90;999.90;;;4.80;99.90;;;;;;5112962;28;20340;-80
2021/10/30 10:19:18;;;;;;;1999.90;999.90;;;4.80;99.90;;;;;;5112620;28;20095;-80
2021/10/30 10:21:45;;;;;;;1999.90;999.90;;;5.00;99.90;;;;;;5094400;28;20031;-79
2021/10/30 10:24:13;;;;;;;1999.90;999.90;;;4.90;99.90;;;;;;5112667;28;20091;-80
2021/10/30 10:26:49;;;;;;;1999.90;999.90;;;4.90;99.90;;;;;;5112710;28;20104;-79
2021/10/30 10:29:35;;;;;;;1999.90;999.90;;;5.00;99.90;;;;;;5094610;28;20027;-79
2021/10/30 10:32:25;;;;;;;1999.90;999.90;;;5.00;99.90;;;;;;5094098;28;20066;-80
2021/10/30 10:34:51;;;;;;;1999.90;999.90;;;4.90;99.90;;;;;;5112723;28;20041;-79
2021/10/30 10:37:22;;;;;;;1999.90;999.90;;;5.00;99.90;;;;;;5094406;28;20035;-80
2021/10/30 10:39:57;;;;;;;1999.90;999.90;;;5.10;99.90;;;;;;5094644;28;20340;-79
2021/10/30 10:42:35;;;;;;;1999.90;999.90;;;5.10;99.90;;;;;;5094421;28;20024;-80
2021/10/30 10:45:02;;;;;;;1999.90;999.90;;;5.10;99.90;;;;;;5094669;28;20382;-80
2021/10/30 10:47:41;;;;;;;1999.90;999.90;;;5.30;99.90;;;;;;5094590;28;20035;-80
2021/10/30 10:50:24;;;;;;;1999.90;999.90;;;5.30;99.90;;;;;;5094012;28;20513;-77
2021/10/30 10:53:05;;;;;;;1999.90;999.90;;;5.30;99.90;;;;;;5094591;28;20028;-78
2021/10/30 10:55:37;;;;;;;1999.90;999.90;;;5.30;99.90;;;;;;5094539;28;20042;-80
2021/10/30 10:58:07;;;;;;;1999.90;999.90;;;5.30;99.90;;;;;;5094491;28;20020;-78
2021/10/30 11:00:35;;;;;;;1999.90;999.90;;;5.50;99.90;;;;;;5094374;28;20038;-83
2021/10/30 11:03:02;;;;;;;1999.90;999.90;;;5.60;99.90;;;;;;5094199;28;20668;-77
2021/10/30 11:05:32;;;;;;;1999.90;999.90;;;5.60;99.90;;;;;;5112666;28;20024;-78
2021/10/30 11:07:59;;;;;;;1999.90;999.90;;;5.70;99.90;;;;;;5098006;28;20478;-79
2021/10/30 11:10:33;;;;;;;1999.90;999.90;;;5.80;99.90;;;;;;5116274;28;20024;-78
2021/10/30 11:12:59;;;;;;;1999.90;999.90;;;5.80;99.90;;;;;;5116476;28;20081;-78
2021/10/30 11:15:49;;;;;;;1999.90;999.90;;;5.90;99.90;;;;;;5116738;28;20016;-79
2021/10/30 11:18:30;;;;;;;1999.90;999.90;;;6.00;99.90;;;;;;5116240;28;20015;-81
2021/10/30 11:21:29;;;;;;;1999.90;999.90;;;6.00;99.90;;;;;;5097908;28;20034;-79
2021/10/30 11:23:57;;;;;;;1999.90;999.90;;;6.00;99.90;;;;;;5116080;27;20366;-80
2021/10/30 11:26:27;;;;;;;1999.90;999.90;;;6.00;99.90;;;;;;5116331;28;20019;-80
2021/10/30 11:29:15;;;;;;;1999.90;999.90;;;5.80;99.90;;;;;;5097919;28;20052;-81
2021/10/30 11:31:41;;;;;;;1999.90;999.90;;;5.90;99.90;;;;;;5097992;28;20167;-81
2021/10/30 11:34:12;;;;;;;1999.90;999.90;;;5.90;99.90;;;;;;5097620;28;20490;-79
2021/10/30 11:36:42;;;;;;;1999.90;999.90;;;6.00;99.90;;;;;;5097781;28;20461;-78
2021/10/30 11:39:10;;;;;;;1999.90;999.90;;;6.10;99.90;;;;;;5116146;28;20569;-80
2021/10/30 11:41:38;;;;;;;1999.90;999.90;;;6.20;99.90;;;;;;5097834;28;20027;-79
2021/10/30 11:44:17;;;;;;;1999.90;999.90;;;6.30;99.90;;;;;;5097129;28;20032;-79
2021/10/30 11:46:48;;;;;;;1999.90;999.90;;;6.40;99.90;;;;;;5097457;28;20024;-79
2021/10/30 11:49:31;;;;;;;1999.90;999.90;;;6.50;99.90;;;;;;5096620;28;20142;-79
2021/10/30 11:52:09;;;;;;;1999.90;999.90;;;6.50;99.90;;;;;;5115500;28;20016;-80
2021/10/30 11:54:36;;;;;;;1999.90;999.90;;;6.80;99.90;;;;;;5097978;28;20479;-81
2021/10/30 11:57:03;;;;;;;1999.90;999.90;;;6.90;99.90;;;;;;5097942;28;20020;-81
2021/10/30 11:59:29;;;;;;;1999.90;999.90;;;7.00;99.90;;;;;;5096795;28;20088;-73
2021/10/30 12:01:54;;;;;;;1999.90;999.90;;;8.00;99.90;;;;;;5114896;28;20385;-75
2021/10/30 12:04:24;;;;;;;1999.90;999.90;;;8.20;99.90;;;;;;5114752;28;20081;-73
2021/10/30 12:07:02;;;;;;;1999.90;999.90;;;8.20;99.90;;;;;;5114771;28;20027;-75
2021/10/30 12:09:36;;;;;;;1999.90;999.90;;;8.10;99.90;;;;;;5114738;28;20027;-73